Back to Top

Language: 

My Weather Underground Personal Weather Station Historical Data with Graphs...

Delerius Weather Station Historical Data
Daily Summary for January 27, 2018 Units:  English    Metric   Both
« Previous Day
Next Day »
Daily Weekly Monthly Yearly Custom
  High: Low: Average:
Temperature: 54.0 °F 36.9 °F 45 °F
Dew Point: 50.0 °F 34.8 °F 41.2 °F
Humidity: 93 % 76 % 87 %
Wind Speed: 30.0 mph 0.0 mph 11.1 mph
Wind Gust: 33.0 mph - -
Wind:- - SW
Pressure: 30.25 in 29.99 in -
Precipitation: 0.00 in    
Historical Graphs
 
 
Tabular Data for January 27, 2018
Time Temperature Dew Point Pressure Wind Wind Speed Wind Gust Humidity Rainfall Rate (Hourly) solar Conditions
00:04 36.9 °F 34.8 °F 30.25 in Calm     92 % 0.00 in 0 W/m2
00:09 36.9 °F 34.8 °F 30.25 in Calm   2.0 mph 92 % 0.00 in 0 W/m2
00:14 36.9 °F 35.0 °F 30.25 in Calm     93 % 0.00 in 0 W/m2
00:19 37.0 °F 35.2 °F 30.25 in SW 2.0 mph 5.0 mph 93 % 0.00 in 0 W/m2
00:24 37.2 °F 35.4 °F 30.25 in Calm     93 % 0.00 in 0 W/m2
00:29 37.2 °F 35.4 °F 30.25 in Calm     93 % 0.00 in 0 W/m2
00:34 37.2 °F 35.4 °F 30.25 in Calm     93 % 0.00 in 0 W/m2
00:39 37.4 °F 35.6 °F 30.25 in Calm     93 % 0.00 in 0 W/m2
00:44 37.6 °F 35.7 °F 30.25 in East 2.0 mph 5.0 mph 93 % 0.00 in 0 W/m2
00:49 37.8 °F 35.9 °F 30.25 in ESE 2.0 mph 5.0 mph 93 % 0.00 in 0 W/m2
00:54 37.9 °F 36.1 °F 30.24 in Calm     93 % 0.00 in 0 W/m2
00:59 37.9 °F 35.8 °F 30.24 in Calm     92 % 0.00 in 0 W/m2
01:04 37.9 °F 35.8 °F 30.24 in SW 2.0 mph 5.0 mph 92 % 0.00 in 0 W/m2
01:09 38.1 °F 36.3 °F 30.24 in SW 2.0 mph 8.0 mph 93 % 0.00 in 0 W/m2
01:14 38.5 °F 36.6 °F 30.24 in SW 3.0 mph 13.0 mph 93 % 0.00 in 0 W/m2
01:19 39.6 °F 37.7 °F 30.24 in SW 8.0 mph 13.0 mph 93 % 0.00 in 0 W/m2
01:24 39.9 °F 37.8 °F 30.24 in WSW 6.0 mph 11.0 mph 92 % 0.00 in 0 W/m2
01:29 40.5 °F 38.0 °F 30.24 in WSW 8.0 mph 14.0 mph 91 % 0.00 in 0 W/m2
01:34 40.6 °F 37.9 °F 30.24 in WSW 8.0 mph 12.0 mph 90 % 0.00 in 0 W/m2
01:39 40.8 °F 37.8 °F 30.23 in SW 9.0 mph 13.0 mph 89 % 0.00 in 0 W/m2
01:44 40.8 °F 37.8 °F 30.23 in SW 11.0 mph 18.0 mph 89 % 0.00 in 0 W/m2
01:49 41.0 °F 37.7 °F 30.23 in WSW 8.0 mph 12.0 mph 88 % 0.00 in 0 W/m2
01:54 41.0 °F 37.7 °F 30.23 in SW 11.0 mph 15.0 mph 88 % 0.00 in 0 W/m2
01:59 41.0 °F 37.7 °F 30.22 in SW 11.0 mph 19.0 mph 88 % 0.00 in 0 W/m2
02:04 41.2 °F 37.9 °F 30.22 in SW 12.0 mph 18.0 mph 88 % 0.00 in 0 W/m2
02:09 41.2 °F 37.6 °F 30.22 in SW 11.0 mph 15.0 mph 87 % 0.00 in 0 W/m2
02:14 41.0 °F 37.4 °F 30.23 in WSW 8.0 mph 13.0 mph 87 % 0.00 in 0 W/m2
02:19 41.0 °F 37.4 °F 30.23 in SW 10.0 mph 15.0 mph 87 % 0.00 in 0 W/m2
02:24 40.8 °F 37.3 °F 30.23 in SW 8.0 mph 12.0 mph 87 % 0.00 in 0 W/m2
02:29 40.8 °F 37.3 °F 30.23 in SW 9.0 mph 13.0 mph 87 % 0.00 in 0 W/m2
02:34 40.8 °F 37.3 °F 30.23 in SW 8.0 mph 13.0 mph 87 % 0.00 in 0 W/m2
02:39 40.6 °F 37.1 °F 30.24 in SW 6.0 mph 9.0 mph 87 % 0.00 in 0 W/m2
02:44 40.5 °F 36.9 °F 30.24 in SW 7.0 mph 11.0 mph 87 % 0.00 in 0 W/m2
02:49 40.3 °F 36.7 °F 30.24 in SW 4.0 mph 8.0 mph 87 % 0.00 in 0 W/m2
02:54 40.3 °F 36.7 °F 30.23 in SW 4.0 mph 7.0 mph 87 % 0.00 in 0 W/m2
02:59 39.9 °F 36.4 °F 30.23 in SSW 3.0 mph 7.0 mph 87 % 0.00 in 0 W/m2
03:04 39.7 °F 36.5 °F 30.23 in SSW 5.0 mph 9.0 mph 88 % 0.00 in 0 W/m2
03:09 39.6 °F 36.3 °F 30.23 in SSW 6.0 mph 8.0 mph 88 % 0.00 in 0 W/m2
03:14 39.6 °F 36.3 °F 30.23 in SSW 5.0 mph 8.0 mph 88 % 0.00 in 0 W/m2
03:19 39.4 °F 36.1 °F 30.23 in SW 7.0 mph 9.0 mph 88 % 0.00 in 0 W/m2
03:24 39.2 °F 35.9 °F 30.23 in SW 7.0 mph 10.0 mph 88 % 0.00 in 0 W/m2
03:30 39.0 °F 36.1 °F 30.23 in SW 7.0 mph 9.0 mph 89 % 0.00 in 0 W/m2
03:35 39.0 °F 36.1 °F 30.22 in SW 7.0 mph 11.0 mph 89 % 0.00 in 0 W/m2
03:40 39.0 °F 36.1 °F 30.22 in SSW 6.0 mph 9.0 mph 89 % 0.00 in 0 W/m2
03:45 38.8 °F 35.9 °F 30.22 in SSW 5.0 mph 9.0 mph 89 % 0.00 in 0 W/m2
03:50 39.0 °F 36.1 °F 30.22 in SSW 5.0 mph 9.0 mph 89 % 0.00 in 0 W/m2
03:55 39.0 °F 36.1 °F 30.22 in South 7.0 mph 12.0 mph 89 % 0.00 in 0 W/m2
04:00 39.0 °F 36.1 °F 30.21 in South 7.0 mph 11.0 mph 89 % 0.00 in 0 W/m2
04:05 39.2 °F 36.2 °F 30.20 in South 7.0 mph 13.0 mph 89 % 0.00 in 0 W/m2
04:10 39.4 °F 36.4 °F 30.20 in South 7.0 mph 11.0 mph 89 % 0.00 in 0 W/m2
04:15 39.4 °F 36.4 °F 30.20 in South 7.0 mph 12.0 mph 89 % 0.00 in 0 W/m2
04:20 39.2 °F 36.2 °F 30.20 in SSW 8.0 mph 12.0 mph 89 % 0.00 in 0 W/m2
04:25 39.2 °F 36.2 °F 30.20 in South 8.0 mph 14.0 mph 89 % 0.00 in 0 W/m2
04:30 39.2 °F 36.2 °F 30.20 in SSW 8.0 mph 13.0 mph 89 % 0.00 in 0 W/m2
04:35 39.0 °F 36.1 °F 30.19 in SSW 10.0 mph 19.0 mph 89 % 0.00 in 0 W/m2
04:40 39.0 °F 36.3 °F 30.19 in SSW 13.0 mph 18.0 mph 90 % 0.00 in 0 W/m2
04:45 39.4 °F 36.7 °F 30.19 in SSW 13.0 mph 18.0 mph 90 % 0.00 in 0 W/m2
04:50 39.4 °F 36.4 °F 30.19 in SSW 12.0 mph 18.0 mph 89 % 0.00 in 0 W/m2
04:55 39.6 °F 36.6 °F 30.19 in SSW 11.0 mph 20.0 mph 89 % 0.00 in 0 W/m2
05:00 39.4 °F 36.4 °F 30.19 in SSW 8.0 mph 12.0 mph 89 % 0.00 in 0 W/m2
05:05 39.2 °F 36.2 °F 30.19 in SSW 6.0 mph 9.0 mph 89 % 0.00 in 0 W/m2
05:10 39.0 °F 36.1 °F 30.18 in SSW 4.0 mph 7.0 mph 89 % 0.00 in 0 W/m2
05:15 39.0 °F 36.3 °F 30.18 in SSW 8.0 mph 12.0 mph 90 % 0.00 in 0 W/m2
05:20 39.0 °F 36.3 °F 30.18 in South 8.0 mph 15.0 mph 90 % 0.00 in 0 W/m2
05:25 39.4 °F 36.7 °F 30.18 in SSW 9.0 mph 14.0 mph 90 % 0.00 in 0 W/m2
05:30 39.4 °F 36.7 °F 30.18 in SSW 10.0 mph 16.0 mph 90 % 0.00 in 0 W/m2
05:35 39.6 °F 36.6 °F 30.17 in SSW 7.0 mph 12.0 mph 89 % 0.00 in 0 W/m2
05:40 39.6 °F 36.6 °F 30.17 in South 9.0 mph 14.0 mph 89 % 0.00 in 0 W/m2
05:45 39.6 °F 36.6 °F 30.17 in SSW 9.0 mph 12.0 mph 89 % 0.00 in 0 W/m2
05:50 39.4 °F 36.4 °F 30.17 in SW 10.0 mph 15.0 mph 89 % 0.00 in 0 W/m2
05:55 39.4 °F 36.4 °F 30.17 in SSW 9.0 mph 14.0 mph 89 % 0.00 in 0 W/m2
06:00 39.2 °F 36.2 °F 30.17 in South 8.0 mph 11.0 mph 89 % 0.00 in 0 W/m2
06:05 39.0 °F 36.1 °F 30.17 in South 7.0 mph 12.0 mph 89 % 0.00 in 0 W/m2
06:10 39.0 °F 36.3 °F 30.17 in South 5.0 mph 8.0 mph 90 % 0.00 in 0 W/m2
06:15 39.0 °F 36.3 °F 30.16 in South 7.0 mph 11.0 mph 90 % 0.00 in 0 W/m2
06:20 39.0 °F 36.3 °F 30.16 in South 9.0 mph 13.0 mph 90 % 0.00 in 0 W/m2
06:25 39.0 °F 36.3 °F 30.16 in South 6.0 mph 9.0 mph 90 % 0.00 in 0 W/m2
06:30 39.2 °F 36.5 °F 30.16 in SSW 7.0 mph 12.0 mph 90 % 0.00 in 0 W/m2
06:35 39.7 °F 37.3 °F 30.15 in SSW 7.0 mph 12.0 mph 91 % 0.00 in 0 W/m2
06:40 40.3 °F 37.6 °F 30.15 in SSW 9.0 mph 15.0 mph 90 % 0.00 in 0 W/m2
06:45 40.5 °F 37.5 °F 30.15 in South 9.0 mph 15.0 mph 89 % 0.00 in 0 W/m2
06:50 40.6 °F 37.7 °F 30.15 in South 6.0 mph 10.0 mph 89 % 0.00 in 0 W/m2
06:55 40.5 °F 37.5 °F 30.15 in SSE 6.0 mph 10.0 mph 89 % 0.00 in 0 W/m2
07:00 40.5 °F 37.5 °F 30.14 in SSE 5.0 mph 9.0 mph 89 % 0.00 in 0 W/m2
07:05 40.5 °F 37.2 °F 30.14 in ESE 5.0 mph 9.0 mph 88 % 0.00 in 0 W/m2
07:10 40.5 °F 37.5 °F 30.14 in ESE 5.0 mph 7.0 mph 89 % 0.00 in 0 W/m2
07:15 40.5 °F 37.5 °F 30.14 in SE 7.0 mph 10.0 mph 89 % 0.00 in 0 W/m2
07:20 40.5 °F 37.5 °F 30.14 in SSE 3.0 mph 7.0 mph 89 % 0.00 in 0 W/m2
07:25 40.6 °F 37.7 °F 30.13 in ESE 3.0 mph 5.0 mph 89 % 0.00 in 0 W/m2
07:30 40.6 °F 37.7 °F 30.13 in SSW 2.0 mph 7.0 mph 89 % 0.00 in 0 W/m2
07:35 41.4 °F 38.6 °F 30.13 in SW 7.0 mph 13.0 mph 90 % 0.00 in 0 W/m2
07:40 42.3 °F 39.5 °F 30.13 in SSW 13.0 mph 18.0 mph 90 % 0.00 in 0 W/m2
07:45 42.6 °F 39.6 °F 30.12 in SW 7.0 mph 14.0 mph 89 % 0.00 in 0 W/m2
07:50 43.0 °F 39.7 °F 30.12 in SSW 12.0 mph 18.0 mph 88 % 0.00 in 0 W/m2
07:55 43.0 °F 39.7 °F 30.11 in South 8.0 mph 13.0 mph 88 % 0.00 in 0 W/m2
08:00 43.0 °F 39.7 °F 30.11 in SSE 7.0 mph 12.0 mph 88 % 0.00 in 0 W/m2
08:05 43.0 °F 39.7 °F 30.11 in SE 7.0 mph 11.0 mph 88 % 0.00 in 0 W/m2
08:10 43.0 °F 39.7 °F 30.11 in SSE 8.0 mph 13.0 mph 88 % 0.00 in 0 W/m2
08:15 43.0 °F 39.7 °F 30.11 in South 7.0 mph 15.0 mph 88 % 0.00 in 0 W/m2
08:20 43.2 °F 40.1 °F 30.11 in South 9.0 mph 23.0 mph 89 % 0.00 in 5 W/m2
08:25 43.3 °F 40.0 °F 30.11 in South 9.0 mph 22.0 mph 88 % 0.00 in 7 W/m2
08:30 43.3 °F 40.0 °F 30.10 in South 9.0 mph 14.0 mph 88 % 0.00 in 11 W/m2
08:35 43.5 °F 40.2 °F 30.10 in South 13.0 mph 21.0 mph 88 % 0.00 in 11 W/m2
08:40 43.5 °F 40.2 °F 30.11 in South 11.0 mph 18.0 mph 88 % 0.00 in 11 W/m2
08:45 43.5 °F 40.2 °F 30.11 in SSW 12.0 mph 20.0 mph 88 % 0.00 in 12 W/m2
08:50 43.5 °F 40.2 °F 30.10 in South 9.0 mph 15.0 mph 88 % 0.00 in 16 W/m2
08:55 43.5 °F 40.2 °F 30.09 in SSW 13.0 mph 21.0 mph 88 % 0.00 in 19 W/m2
09:00 43.5 °F 40.2 °F 30.09 in South 13.0 mph 22.0 mph 88 % 0.00 in 23 W/m2
09:05 43.5 °F 40.5 °F 30.09 in South 12.0 mph 21.0 mph 89 % 0.00 in 25 W/m2
09:11 43.7 °F 40.7 °F 30.09 in South 11.0 mph 19.0 mph 89 % 0.00 in 23 W/m2
09:16 43.7 °F 40.7 °F 30.09 in South 9.0 mph 16.0 mph 89 % 0.00 in 28 W/m2
09:21 43.7 °F 40.7 °F 30.09 in South 11.0 mph 21.0 mph 89 % 0.00 in 30 W/m2
09:26 43.9 °F 40.8 °F 30.08 in SSW 12.0 mph 18.0 mph 89 % 0.00 in 28 W/m2
09:31 43.9 °F 40.8 °F 30.08 in SSW 11.0 mph 18.0 mph 89 % 0.00 in 28 W/m2
09:36 43.9 °F 40.8 °F 30.08 in SSW 11.0 mph 19.0 mph 89 % 0.00 in 30 W/m2
09:41 44.1 °F 41.0 °F 30.07 in SSW 13.0 mph 20.0 mph 89 % 0.00 in 28 W/m2
09:46 43.9 °F 40.8 °F 30.07 in SSW 10.0 mph 15.0 mph 89 % 0.00 in 26 W/m2
09:51 43.9 °F 41.1 °F 30.07 in SSW 10.0 mph 21.0 mph 90 % 0.00 in 28 W/m2
09:56 43.9 °F 41.1 °F 30.07 in SSW 11.0 mph 15.0 mph 90 % 0.00 in 30 W/m2
10:01 44.1 °F 41.6 °F 30.06 in SSW 13.0 mph 22.0 mph 91 % 0.00 in 37 W/m2
10:06 44.1 °F 41.6 °F 30.06 in SSW 10.0 mph 19.0 mph 91 % 0.00 in 35 W/m2
10:11 44.1 °F 41.6 °F 30.06 in SSW 10.0 mph 19.0 mph 91 % 0.00 in 39 W/m2
10:16 44.1 °F 41.6 °F 30.06 in South 12.0 mph 22.0 mph 91 % 0.00 in 39 W/m2
10:21 44.2 °F 41.8 °F 30.06 in SSW 9.0 mph 16.0 mph 91 % 0.00 in 40 W/m2
10:26 44.2 °F 41.8 °F 30.06 in SSW 10.0 mph 14.0 mph 91 % 0.00 in 33 W/m2
10:31 44.4 °F 42.0 °F 30.06 in SSW 13.0 mph 21.0 mph 91 % 0.00 in 33 W/m2
10:36 44.6 °F 42.1 °F 30.06 in SSW 12.0 mph 21.0 mph 91 % 0.00 in 47 W/m2
10:41 44.8 °F 42.3 °F 30.06 in SW 14.0 mph 23.0 mph 91 % 0.00 in 53 W/m2
10:46 44.8 °F 42.3 °F 30.06 in SSW 15.0 mph 28.0 mph 91 % 0.00 in 63 W/m2
10:51 44.8 °F 42.3 °F 30.06 in SW 17.0 mph 26.0 mph 91 % 0.00 in 67 W/m2
10:56 45.0 °F 42.5 °F 30.05 in SW 16.0 mph 23.0 mph 91 % 0.00 in 62 W/m2
11:01 45.0 °F 42.5 °F 30.05 in SW 14.0 mph 22.0 mph 91 % 0.00 in 58 W/m2
11:06 45.0 °F 42.5 °F 30.05 in SW 16.0 mph 25.0 mph 91 % 0.00 in 53 W/m2
11:11 45.0 °F 42.5 °F 30.05 in SW 16.0 mph 24.0 mph 91 % 0.00 in 51 W/m2
11:16 45.0 °F 42.5 °F 30.05 in SSW 12.0 mph 24.0 mph 91 % 0.00 in 51 W/m2
11:21 45.0 °F 42.5 °F 30.05 in SW 12.0 mph 18.0 mph 91 % 0.00 in 49 W/m2
11:26 45.0 °F 42.5 °F 30.05 in SW 14.0 mph 23.0 mph 91 % 0.00 in 53 W/m2
11:31 45.0 °F 42.5 °F 30.04 in SW 14.0 mph 27.0 mph 91 % 0.00 in 62 W/m2
11:36 45.0 °F 42.5 °F 30.05 in SW 14.0 mph 23.0 mph 91 % 0.00 in 63 W/m2
11:41 45.1 °F 42.7 °F 30.04 in SW 17.0 mph 27.0 mph 91 % 0.00 in 63 W/m2
11:46 45.1 °F 42.7 °F 30.04 in SW 15.0 mph 25.0 mph 91 % 0.00 in 65 W/m2
11:51 45.1 °F 43.0 °F 30.04 in SW 16.0 mph 24.0 mph 92 % 0.00 in 70 W/m2
11:56 45.3 °F 42.8 °F 30.04 in SW 20.0 mph 30.0 mph 91 % 0.00 in 76 W/m2
12:01 45.3 °F 43.1 °F 30.04 in SW 17.0 mph 33.0 mph 92 % 0.00 in 81 W/m2
12:06 45.3 °F 43.1 °F 30.04 in SW 16.0 mph 25.0 mph 92 % 0.00 in 91 W/m2
12:11 45.5 °F 43.3 °F 30.04 in SW 13.0 mph 19.0 mph 92 % 0.00 in 100 W/m2
12:16 45.7 °F 43.5 °F 30.04 in SW 14.0 mph 22.0 mph 92 % 0.00 in 98 W/m2
12:21 45.9 °F 43.7 °F 30.04 in SW 15.0 mph 21.0 mph 92 % 0.00 in 97 W/m2
12:26 46.0 °F 43.8 °F 30.04 in SW 15.0 mph 23.0 mph 92 % 0.00 in 91 W/m2
12:45 46.5 °F 44.0 °F 30.03 in SW 23.0 mph 23.0 mph 91 % 0.00 in 91 W/m2
13:00 47.1 °F 44.6 °F 30.02 in SW 24.0 mph 24.0 mph 91 % 0.00 in 81 W/m2
13:15 47.5 °F 45.3 °F 30.02 in SW 19.0 mph 19.0 mph 92 % 0.00 in 69 W/m2
13:30 47.9 °F 45.7 °F 30.02 in SW 19.0 mph 19.0 mph 92 % 0.00 in 68 W/m2
13:45 48.4 °F 45.9 °F 30.02 in SW 18.0 mph 18.0 mph 91 % 0.00 in 52 W/m2
14:00 48.8 °F 46.3 °F 30.01 in SW 20.0 mph 20.0 mph 91 % 0.00 in 89 W/m2
14:15 49.4 °F 46.9 °F 29.99 in SW 19.0 mph 19.0 mph 91 % 0.00 in 130 W/m2
14:30 50.2 °F 47.4 °F 29.99 in SW 19.0 mph 19.0 mph 90 % 0.00 in 117 W/m2
14:45 50.6 °F 47.5 °F 30.00 in SW 20.0 mph 20.0 mph 89 % 0.00 in 129 W/m2
15:00 51.1 °F 48.0 °F 30.01 in SW 16.0 mph 16.0 mph 89 % 0.00 in 116 W/m2
15:15 51.5 °F 48.4 °F 30.02 in SW 13.0 mph 13.0 mph 89 % 0.00 in 72 W/m2
15:30 52.3 °F 48.9 °F 30.02 in WSW 20.0 mph 20.0 mph 88 % 0.00 in 34 W/m2
15:45 52.5 °F 49.0 °F 30.02 in SW 20.0 mph 20.0 mph 88 % 0.00 in 17 W/m2
16:00 53.2 °F 49.1 °F 30.02 in WSW 22.0 mph 22.0 mph 86 % 0.00 in 18 W/m2
16:15 53.8 °F 49.7 °F 30.01 in WSW 24.0 mph 24.0 mph 86 % 0.00 in 8 W/m2
16:30 54.0 °F 49.9 °F 30.02 in WSW 27.0 mph 27.0 mph 86 % 0.00 in 1 W/m2
16:45 53.8 °F 50.0 °F 30.03 in WSW 20.0 mph 20.0 mph 87 % 0.00 in 0 W/m2
17:00 53.6 °F 49.5 °F 30.03 in WSW 25.0 mph 25.0 mph 86 % 0.00 in 0 W/m2
17:15 53.9 °F 49.5 °F 30.04 in WSW 30.0 mph 30.0 mph 85 % 0.00 in 0 W/m2
17:30 53.9 °F 49.5 °F 30.05 in WSW 26.0 mph 26.0 mph 85 % 0.00 in 0 W/m2
18:06 54.0 °F 49.9 °F 30.05 in West 11.0 mph 14.0 mph 86 % 0.00 in 0 W/m2
18:11 54.0 °F 49.9 °F 30.05 in West 14.0 mph 23.0 mph 86 % 0.00 in 0 W/m2
18:16 54.0 °F 49.9 °F 30.04 in West 18.0 mph 29.0 mph 86 % 0.00 in 0 W/m2
18:22 54.0 °F 49.9 °F 30.05 in West 11.0 mph 19.0 mph 86 % 0.00 in 0 W/m2
18:27 54.0 °F 49.9 °F 30.05 in West 13.0 mph 21.0 mph 86 % 0.00 in 0 W/m2
18:32 53.8 °F 49.4 °F 30.05 in West 16.0 mph 27.0 mph 85 % 0.00 in 0 W/m2
18:37 54.0 °F 49.6 °F 30.05 in West 15.0 mph 23.0 mph 85 % 0.00 in 0 W/m2
18:42 54.0 °F 49.6 °F 30.05 in WSW 17.0 mph 26.0 mph 85 % 0.00 in 0 W/m2
18:47 54.0 °F 49.2 °F 30.07 in West 17.0 mph 25.0 mph 84 % 0.00 in 0 W/m2
18:52 53.8 °F 49.1 °F 30.06 in West 15.0 mph 23.0 mph 84 % 0.00 in 0 W/m2
18:57 53.8 °F 49.1 °F 30.07 in West 21.0 mph 32.0 mph 84 % 0.00 in 0 W/m2
19:02 53.8 °F 49.1 °F 30.07 in West 16.0 mph 28.0 mph 84 % 0.00 in 0 W/m2
19:07 53.4 °F 48.7 °F 30.07 in West 17.0 mph 25.0 mph 84 % 0.00 in 0 W/m2
19:12 53.2 °F 48.2 °F 30.07 in West 17.0 mph 24.0 mph 83 % 0.00 in 0 W/m2
19:17 53.2 °F 48.2 °F 30.07 in West 11.0 mph 21.0 mph 83 % 0.00 in 0 W/m2
19:22 53.2 °F 48.2 °F 30.07 in WNW 13.0 mph 20.0 mph 83 % 0.00 in 0 W/m2
19:27 53.1 °F 48.0 °F 30.07 in West 15.0 mph 22.0 mph 83 % 0.00 in 0 W/m2
19:32 53.1 °F 47.7 °F 30.07 in West 16.0 mph 30.0 mph 82 % 0.00 in 0 W/m2
19:37 53.1 °F 47.7 °F 30.07 in West 12.0 mph 18.0 mph 82 % 0.00 in 0 W/m2
19:42 52.9 °F 47.2 °F 30.07 in West 18.0 mph 28.0 mph 81 % 0.00 in 0 W/m2
19:47 52.9 °F 46.9 °F 30.08 in West 17.0 mph 29.0 mph 80 % 0.00 in 0 W/m2
19:52 52.9 °F 46.9 °F 30.08 in West 15.0 mph 23.0 mph 80 % 0.00 in 0 W/m2
19:57 52.7 °F 46.7 °F 30.09 in West 18.0 mph 33.0 mph 80 % 0.00 in 0 W/m2
20:02 52.5 °F 46.2 °F 30.09 in WNW 21.0 mph 28.0 mph 79 % 0.00 in 0 W/m2
20:07 52.3 °F 46.0 °F 30.10 in West 12.0 mph 22.0 mph 79 % 0.00 in 0 W/m2
20:13 52.2 °F 45.8 °F 30.10 in WNW 15.0 mph 27.0 mph 79 % 0.00 in 0 W/m2
20:17 52.2 °F 45.8 °F 30.10 in West 16.0 mph 27.0 mph 79 % 0.00 in 0 W/m2
20:23 52.2 °F 45.8 °F 30.10 in West 15.0 mph 24.0 mph 79 % 0.00 in 0 W/m2
20:28 52.0 °F 46.0 °F 30.10 in West 12.0 mph 22.0 mph 80 % 0.00 in 0 W/m2
20:33 52.0 °F 46.0 °F 30.11 in West 13.0 mph 25.0 mph 80 % 0.00 in 0 W/m2
20:38 51.8 °F 45.5 °F 30.11 in West 14.0 mph 22.0 mph 79 % 0.00 in 0 W/m2
20:43 51.8 °F 45.5 °F 30.12 in West 13.0 mph 24.0 mph 79 % 0.00 in 0 W/m2
20:48 51.6 °F 45.3 °F 30.12 in West 9.0 mph 16.0 mph 79 % 0.00 in 0 W/m2
20:53 51.4 °F 45.1 °F 30.12 in West 14.0 mph 22.0 mph 79 % 0.00 in 0 W/m2
20:58 51.3 °F 45.0 °F 30.12 in West 10.0 mph 15.0 mph 79 % 0.00 in 0 W/m2
21:03 51.3 °F 45.0 °F 30.12 in West 14.0 mph 24.0 mph 79 % 0.00 in 0 W/m2
21:08 51.1 °F 44.8 °F 30.12 in West 17.0 mph 26.0 mph 79 % 0.00 in 0 W/m2
21:13 50.9 °F 44.6 °F 30.12 in West 12.0 mph 23.0 mph 79 % 0.00 in 0 W/m2
21:18 50.7 °F 44.4 °F 30.12 in West 12.0 mph 19.0 mph 79 % 0.00 in 0 W/m2
21:23 50.5 °F 44.3 °F 30.13 in West 10.0 mph 15.0 mph 79 % 0.00 in 0 W/m2
21:28 50.2 °F 43.6 °F 30.13 in West 12.0 mph 20.0 mph 78 % 0.00 in 0 W/m2
21:33 50.2 °F 43.6 °F 30.13 in West 12.0 mph 19.0 mph 78 % 0.00 in 0 W/m2
21:38 50.0 °F 43.4 °F 30.14 in West 13.0 mph 21.0 mph 78 % 0.00 in 0 W/m2
21:43 49.8 °F 42.9 °F 30.14 in West 14.0 mph 22.0 mph 77 % 0.00 in 0 W/m2
21:48 49.8 °F 42.9 °F 30.15 in West 13.0 mph 20.0 mph 77 % 0.00 in 0 W/m2
21:53 49.6 °F 42.7 °F 30.15 in West 16.0 mph 24.0 mph 77 % 0.00 in 0 W/m2
21:58 49.5 °F 42.2 °F 30.15 in West 14.0 mph 24.0 mph 76 % 0.00 in 0 W/m2
22:03 49.3 °F 42.0 °F 30.15 in West 14.0 mph 20.0 mph 76 % 0.00 in 0 W/m2
22:08 49.1 °F 41.9 °F 30.15 in West 14.0 mph 20.0 mph 76 % 0.00 in 0 W/m2
22:13 48.9 °F 41.7 °F 30.16 in West 14.0 mph 23.0 mph 76 % 0.00 in 0 W/m2
22:18 48.9 °F 41.7 °F 30.16 in WNW 12.0 mph 23.0 mph 76 % 0.00 in 0 W/m2
22:23 48.9 °F 41.7 °F 30.17 in WNW 15.0 mph 23.0 mph 76 % 0.00 in 0 W/m2
22:28 48.7 °F 41.5 °F 30.17 in WNW 10.0 mph 14.0 mph 76 % 0.00 in 0 W/m2
22:33 48.7 °F 41.5 °F 30.17 in WNW 13.0 mph 21.0 mph 76 % 0.00 in 0 W/m2
22:38 48.7 °F 41.5 °F 30.18 in WNW 10.0 mph 19.0 mph 76 % 0.00 in 0 W/m2
22:43 48.7 °F 41.8 °F 30.18 in WNW 11.0 mph 16.0 mph 77 % 0.00 in 0 W/m2
22:48 48.7 °F 42.2 °F 30.19 in West 9.0 mph 14.0 mph 78 % 0.00 in 0 W/m2
22:53 48.7 °F 42.2 °F 30.19 in West 11.0 mph 20.0 mph 78 % 0.00 in 0 W/m2
22:58 48.7 °F 42.5 °F 30.18 in West 7.0 mph 13.0 mph 79 % 0.00 in 0 W/m2
23:03 48.6 °F 42.3 °F 30.18 in West 9.0 mph 13.0 mph 79 % 0.00 in 0 W/m2
23:08 48.4 °F 42.2 °F 30.18 in West 12.0 mph 19.0 mph 79 % 0.00 in 0 W/m2
23:13 48.4 °F 42.2 °F 30.18 in West 11.0 mph 16.0 mph 79 % 0.00 in 0 W/m2
23:18 48.4 °F 42.2 °F 30.19 in West 12.0 mph 20.0 mph 79 % 0.00 in 0 W/m2
23:23 48.2 °F 42.3 °F 30.18 in West 9.0 mph 16.0 mph 80 % 0.00 in 0 W/m2
23:28 48.0 °F 42.1 °F 30.18 in West 14.0 mph 23.0 mph 80 % 0.00 in 0 W/m2
23:33 48.0 °F 42.1 °F 30.19 in West 14.0 mph 24.0 mph 80 % 0.00 in 0 W/m2
23:38 48.2 °F 42.3 °F 30.19 in West 12.0 mph 20.0 mph 80 % 0.00 in 0 W/m2
23:43 48.0 °F 42.5 °F 30.19 in West 14.0 mph 22.0 mph 81 % 0.00 in 0 W/m2
23:48 48.0 °F 42.5 °F 30.20 in West 13.0 mph 19.0 mph 81 % 0.00 in 0 W/m2
23:54 47.8 °F 42.3 °F 30.20 in West 10.0 mph 16.0 mph 81 % 0.00 in 0 W/m2
23:59 47.8 °F 42.3 °F 30.20 in West 14.0 mph 22.0 mph 81 % 0.00 in 0 W/m2
Delerius-Weather
Compliments of Weather Underground - 2 mb

Data updates at regular intervals.